Time;durP1;ratioP1;P1;durP2;ratioP2;P2;SDS_P1;SDS_P2;PMS_P1;PMS_P2;Temp;Humidity;BMP_temperature;BMP_pressure;BME280_temperature;BME280_humidity;BME280_pressure;Samples;Min_cycle;Max_cycle;Signal;HPM_P1;HPM_P2
2022/05/10 00:01:28;;;;;;;6.97;5.85;;;;;;;;;;5034840;28;20451;-73
2022/05/10 00:03:55;;;;;;;6.30;5.70;;;;;;;;;;5028569;28;20026;-73
2022/05/10 00:06:21;;;;;;;6.53;5.82;;;;;;;;;;5036519;28;20597;-72
2022/05/10 00:08:47;;;;;;;6.25;5.65;;;;;;;;;;5045046;28;20036;-73
2022/05/10 00:11:12;;;;;;;7.43;5.70;;;;;;;;;;5028726;28;20388;-72
2022/05/10 00:13:37;;;;;;;7.20;6.00;;;;;;;;;;5034659;28;20108;-73
2022/05/10 00:16:15;;;;;;;5.82;5.32;;;;;;;;;;5036319;28;20410;-73
2022/05/10 00:18:41;;;;;;;6.70;6.00;;;;;;;;;;5046414;28;20021;-73
2022/05/10 00:21:09;;;;;;;7.32;5.93;;;;;;;;;;5041521;28;20050;-73
2022/05/10 00:23:34;;;;;;;6.75;5.65;;;;;;;;;;5028838;28;20053;-72
2022/05/10 00:25:59;;;;;;;7.57;6.00;;;;;;;;;;5036030;28;20063;-72
2022/05/10 00:28:25;;;;;;;6.00;5.50;;;;;;;;;;5036518;28;20032;-73
2022/05/10 00:30:50;;;;;;;6.75;6.10;;;;;;;;;;5037471;28;20029;-73
2022/05/10 00:33:21;;;;;;;6.45;5.82;;;;;;;;;;5031541;28;20029;-72
2022/05/10 00:35:46;;;;;;;6.70;6.05;;;;;;;;;;5038875;28;20084;-73
2022/05/10 00:38:11;;;;;;;7.30;6.45;;;;;;;;;;5031367;28;20021;-73
2022/05/10 00:40:37;;;;;;;7.40;6.10;;;;;;;;;;5033489;28;20475;-73
2022/05/10 00:43:29;;;;;;;9.32;5.80;;;;;;;;;;5029834;28;20418;-72
2022/05/10 00:46:01;;;;;;;6.57;5.88;;;;;;;;;;5008426;28;20423;-72
2022/05/10 00:48:32;;;;;;;7.73;6.10;;;;;;;;;;5016194;28;20047;-73
2022/05/10 00:51:16;;;;;;;6.85;6.22;;;;;;;;;;5036048;28;20275;-72
2022/05/10 00:53:51;;;;;;;8.18;7.03;;;;;;;;;;5035917;28;20029;-73
2022/05/10 00:56:35;;;;;;;7.57;5.95;;;;;;;;;;5040856;28;20030;-72
2022/05/10 00:59:19;;;;;;;6.75;5.93;;;;;;;;;;5032737;28;20030;-72
2022/05/10 01:01:49;;;;;;;6.78;6.07;;;;;;;;;;5036736;28;20041;-72
2022/05/10 01:04:32;;;;;;;7.85;6.93;;;;;;;;;;5042398;28;20526;-73
2022/05/10 01:07:04;;;;;;;;;;;;;;;;;;5037092;28;20028;-72
2022/05/10 01:09:30;;;;;;;9.07;6.53;;;;;;;;;;5051083;28;19912;-73
2022/05/10 01:12:12;;;;;;;7.50;6.80;;;;;;;;;;5033675;28;20039;-72
2022/05/10 01:14:50;;;;;;;7.72;6.80;;;;;;;;;;5049478;28;20033;-72
2022/05/10 01:17:16;;;;;;;7.53;6.75;;;;;;;;;;5041544;28;20262;-72
2022/05/10 01:19:43;;;;;;;6.93;6.22;;;;;;;;;;5038274;28;20029;-72
2022/05/10 01:22:27;;;;;;;7.07;6.30;;;;;;;;;;5036385;28;20098;-72
2022/05/10 01:25:14;;;;;;;8.68;6.75;;;;;;;;;;5034946;28;20079;-72
2022/05/10 01:27:48;;;;;;;7.45;6.55;;;;;;;;;;5040006;28;20039;-72
2022/05/10 01:30:17;;;;;;;7.78;6.40;;;;;;;;;;5037305;28;20033;-72
2022/05/10 01:36:12;;;;;;;9.45;6.63;;;;;;;;;;5011032;28;20045;-73
2022/05/10 01:38:47;;;;;;;7.28;6.55;;;;;;;;;;5013597;28;20022;-73
2022/05/10 01:41:23;;;;;;;7.13;6.43;;;;;;;;;;5034835;28;20025;-72
2022/05/10 01:43:59;;;;;;;7.05;6.43;;;;;;;;;;5042193;28;20042;-72
2022/05/10 01:46:29;;;;;;;7.43;6.70;;;;;;;;;;5034421;28;20087;-73
2022/05/10 01:49:07;;;;;;;7.47;6.78;;;;;;;;;;5026474;28;20419;-72
2022/05/10 01:51:41;;;;;;;8.88;6.85;;;;;;;;;;5043297;28;20035;-73
2022/05/10 01:54:38;;;;;;;6.55;5.95;;;;;;;;;;5041622;28;20060;-72
2022/05/10 01:57:07;;;;;;;6.78;5.97;;;;;;;;;;5038780;28;20033;-73
2022/05/10 01:59:32;;;;;;;8.25;6.45;;;;;;;;;;5035735;28;20506;-73
2022/05/10 02:01:59;;;;;;;7.35;6.13;;;;;;;;;;5036853;28;20036;-72
2022/05/10 02:04:29;;;;;;;6.68;6.07;;;;;;;;;;5038379;28;20108;-73
2022/05/10 02:07:02;;;;;;;7.50;6.35;;;;;;;;;;5028300;28;20059;-72
2022/05/10 02:09:35;;;;;;;8.15;6.80;;;;;;;;;;5042920;28;20490;-73
2022/05/10 02:12:13;;;;;;;9.57;6.65;;;;;;;;;;5028758;28;20052;-73
2022/05/10 02:14:47;;;;;;;9.00;7.07;;;;;;;;;;5039819;28;20025;-72
2022/05/10 02:17:21;;;;;;;8.63;6.82;;;;;;;;;;5038696;28;20424;-73
2022/05/10 02:19:58;;;;;;;6.97;6.28;;;;;;;;;;5042717;28;20037;-72
2022/05/10 02:22:46;;;;;;;7.63;6.57;;;;;;;;;;5036296;28;20029;-72
2022/05/10 02:25:16;;;;;;;7.28;6.57;;;;;;;;;;5036898;28;20043;-72
2022/05/10 02:27:50;;;;;;;8.07;7.22;;;;;;;;;;5045820;28;20403;-72
2022/05/10 02:30:19;;;;;;;8.15;7.25;;;;;;;;;;5035666;28;20086;-71
2022/05/10 02:33:07;;;;;;;12.45;7.65;;;;;;;;;;5041253;28;20108;-72
2022/05/10 02:35:57;;;;;;;8.30;6.90;;;;;;;;;;5042522;28;20037;-72
2022/05/10 02:38:34;;;;;;;8.02;7.03;;;;;;;;;;5049196;28;20054;-72
2022/05/10 02:41:07;;;;;;;8.18;7.28;;;;;;;;;;5049785;28;20184;-72
2022/05/10 02:43:42;;;;;;;8.25;7.45;;;;;;;;;;5035272;28;20412;-72
2022/05/10 02:46:07;;;;;;;7.80;6.97;;;;;;;;;;5036945;28;20215;-73
2022/05/10 02:48:35;;;;;;;7.82;6.75;;;;;;;;;;5040710;28;20040;-72
2022/05/10 02:51:01;;;;;;;8.88;7.18;;;;;;;;;;5040055;28;20118;-72
2022/05/10 02:53:27;;;;;;;8.18;7.25;;;;;;;;;;5040950;28;20067;-72
2022/05/10 02:55:58;;;;;;;8.70;7.80;;;;;;;;;;5046299;28;20408;-72
2022/05/10 02:58:31;;;;;;;8.13;7.25;;;;;;;;;;5032657;28;20029;-73
2022/05/10 03:01:04;;;;;;;8.40;7.40;;;;;;;;;;5028751;28;20029;-71
2022/05/10 03:03:30;;;;;;;9.00;7.70;;;;;;;;;;5039814;28;20037;-72
2022/05/10 03:05:56;;;;;;;8.65;7.10;;;;;;;;;;5039080;28;20031;-71
2022/05/10 03:08:22;;;;;;;8.82;7.57;;;;;;;;;;5040448;28;20021;-72
2022/05/10 03:10:48;;;;;;;8.43;7.45;;;;;;;;;;5047994;28;20029;-72
2022/05/10 03:13:14;;;;;;;7.88;7.13;;;;;;;;;;5048913;28;20143;-72
2022/05/10 03:15:40;;;;;;;8.00;7.20;;;;;;;;;;5041534;28;20033;-72
2022/05/10 03:18:05;;;;;;;8.60;7.43;;;;;;;;;;5041933;28;20024;-72
2022/05/10 03:20:31;;;;;;;8.23;7.32;;;;;;;;;;5048620;28;20033;-73
2022/05/10 03:22:57;;;;;;;7.75;6.95;;;;;;;;;;5048899;28;20031;-72
2022/05/10 03:25:23;;;;;;;9.13;7.65;;;;;;;;;;5048709;28;20024;-73
2022/05/10 03:27:49;;;;;;;8.68;7.40;;;;;;;;;;5035653;28;20036;-73
2022/05/10 03:30:15;;;;;;;9.93;7.93;;;;;;;;;;5032043;28;20023;-72
2022/05/10 03:32:40;;;;;;;8.68;7.78;;;;;;;;;;5037567;28;20294;-72
2022/05/10 03:35:06;;;;;;;8.52;7.53;;;;;;;;;;5036290;28;20086;-73
2022/05/10 03:37:31;;;;;;;9.88;7.65;;;;;;;;;;5046028;28;20024;-73
2022/05/10 03:39:57;;;;;;;8.38;7.40;;;;;;;;;;5048618;28;20139;-73
2022/05/10 03:42:23;;;;;;;9.32;7.70;;;;;;;;;;5041707;28;20060;-72
2022/05/10 03:44:52;;;;;;;13.82;8.15;;;;;;;;;;5039157;28;20490;-72
2022/05/10 03:47:22;;;;;;;9.80;7.63;;;;;;;;;;5033355;28;20152;-73
2022/05/10 03:49:48;;;;;;;8.63;7.43;;;;;;;;;;5035892;28;20383;-72
2022/05/10 03:52:14;;;;;;;11.10;8.40;;;;;;;;;;5043158;28;20074;-73
2022/05/10 03:54:40;;;;;;;8.50;6.90;;;;;;;;;;5034630;28;20041;-72
2022/05/10 03:57:06;;;;;;;8.38;6.68;;;;;;;;;;5048280;28;20025;-72
2022/05/10 03:59:32;;;;;;;9.95;7.55;;;;;;;;;;5038965;28;20090;-72
2022/05/10 04:01:57;;;;;;;8.77;7.28;;;;;;;;;;5035683;28;20068;-72
2022/05/10 04:04:23;;;;;;;8.35;7.30;;;;;;;;;;5040831;28;20029;-72
2022/05/10 04:06:48;;;;;;;9.05;7.72;;;;;;;;;;5039970;28;20029;-73
2022/05/10 04:09:15;;;;;;;9.30;8.40;;;;;;;;;;5032378;28;20074;-73
2022/05/10 04:11:41;;;;;;;9.48;7.90;;;;;;;;;;5037750;28;20098;-72
2022/05/10 04:14:07;;;;;;;8.63;7.60;;;;;;;;;;5041990;28;20491;-72
2022/05/10 04:16:33;;;;;;;10.50;7.43;;;;;;;;;;5043617;28;20040;-72
2022/05/10 04:18:58;;;;;;;8.82;7.40;;;;;;;;;;5035481;28;20406;-72
2022/05/10 04:21:23;;;;;;;10.55;7.63;;;;;;;;;;5029102;28;20021;-72
2022/05/10 04:23:49;;;;;;;9.20;7.72;;;;;;;;;;5039550;28;20499;-72
2022/05/10 04:26:15;;;;;;;8.40;7.30;;;;;;;;;;5045878;28;20029;-72
2022/05/10 04:28:42;;;;;;;8.63;7.05;;;;;;;;;;5031887;28;20021;-72
2022/05/10 04:31:08;;;;;;;8.73;7.82;;;;;;;;;;5036682;28;20029;-72
2022/05/10 04:33:34;;;;;;;7.90;7.10;;;;;;;;;;5034737;28;20051;-72
2022/05/10 04:36:00;;;;;;;9.48;8.48;;;;;;;;;;5047467;28;20483;-72
2022/05/10 04:38:25;;;;;;;8.60;7.70;;;;;;;;;;5039320;28;20037;-72
2022/05/10 04:43:36;;;;;;;9.40;7.50;;;;;;;;;;5047091;28;20033;-72
2022/05/10 04:46:02;;;;;;;12.52;7.85;;;;;;;;;;5036920;28;20037;-72
2022/05/10 04:48:27;;;;;;;8.75;6.97;;;;;;;;;;5038049;28;20550;-72
2022/05/10 04:50:53;;;;;;;8.80;7.93;;;;;;;;;;5040034;28;20698;-71
2022/05/10 04:53:18;;;;;;;9.88;7.55;;;;;;;;;;5046830;28;20033;-72
2022/05/10 04:55:44;;;;;;;9.00;7.85;;;;;;;;;;5020908;28;20512;-72
2022/05/10 04:58:09;;;;;;;9.00;7.43;;;;;;;;;;5037573;28;20087;-71
2022/05/10 05:00:34;;;;;;;8.55;7.75;;;;;;;;;;5043911;28;20040;-72
2022/05/10 05:03:00;;;;;;;9.55;8.00;;;;;;;;;;5035315;28;20021;-73
2022/05/10 05:05:25;;;;;;;8.45;7.65;;;;;;;;;;5042869;28;20024;-72
2022/05/10 05:07:50;;;;;;;11.00;7.60;;;;;;;;;;5045722;28;20395;-72
2022/05/10 05:10:16;;;;;;;10.52;8.23;;;;;;;;;;5041704;28;20032;-71
2022/05/10 05:12:41;;;;;;;8.90;8.00;;;;;;;;;;5040047;28;20100;-72
2022/05/10 05:15:09;;;;;;;8.98;7.68;;;;;;;;;;5033346;28;20069;-72
2022/05/10 05:17:35;;;;;;;9.65;8.00;;;;;;;;;;5042385;28;20032;-72
2022/05/10 05:20:00;;;;;;;9.93;7.82;;;;;;;;;;5042000;28;20037;-72
2022/05/10 05:22:26;;;;;;;10.80;8.23;;;;;;;;;;5037095;28;20032;-72
2022/05/10 05:24:52;;;;;;;9.52;8.00;;;;;;;;;;5028648;28;20032;-73
2022/05/10 05:27:19;;;;;;;10.95;8.15;;;;;;;;;;5039091;28;20043;-72
2022/05/10 05:29:44;;;;;;;10.13;8.23;;;;;;;;;;5039038;28;20063;-73
2022/05/10 05:32:10;;;;;;;9.23;8.27;;;;;;;;;;5033716;28;20049;-72
2022/05/10 05:34:36;;;;;;;11.35;8.50;;;;;;;;;;5030748;28;20040;-72
2022/05/10 05:39:46;;;;;;;12.73;8.82;;;;;;;;;;5021375;28;20092;-72
2022/05/10 05:42:11;;;;;;;14.63;8.82;;;;;;;;;;5027046;28;20060;-72
2022/05/10 05:44:37;;;;;;;10.20;9.05;;;;;;;;;;5039978;28;20033;-72
2022/05/10 05:47:02;;;;;;;10.77;8.88;;;;;;;;;;5042486;28;20056;-72
2022/05/10 05:49:27;;;;;;;10.13;8.65;;;;;;;;;;5050189;28;20037;-71
2022/05/10 05:51:57;;;;;;;11.88;9.13;;;;;;;;;;5035652;28;20025;-71
2022/05/10 05:54:23;;;;;;;12.30;9.10;;;;;;;;;;5037929;28;20039;-72
2022/05/10 05:56:48;;;;;;;13.27;8.80;;;;;;;;;;5034436;28;20103;-72
2022/05/10 05:59:14;;;;;;;12.70;8.93;;;;;;;;;;5042959;28;20036;-72
2022/05/10 06:01:39;;;;;;;11.60;7.40;;;;;;;;;;5016849;28;20026;-71
2022/05/10 06:04:04;;;;;;;13.88;11.45;;;;;;;;;;5025465;28;20048;-71
2022/05/10 06:06:29;;;;;;;12.75;9.38;;;;;;;;;;5020098;28;20414;-70
2022/05/10 06:08:55;;;;;;;14.48;11.18;;;;;;;;;;5031159;28;20420;-72
2022/05/10 06:11:20;;;;;;;15.88;9.70;;;;;;;;;;5040366;28;20033;-72
2022/05/10 06:13:45;;;;;;;16.92;11.73;;;;;;;;;;5030426;28;20464;-71
2022/05/10 06:16:10;;;;;;;12.00;9.73;;;;;;;;;;5027397;28;20029;-71
2022/05/10 06:18:36;;;;;;;14.95;8.63;;;;;;;;;;5034070;28;20023;-71
2022/05/10 06:21:01;;;;;;;9.20;7.97;;;;;;;;;;5022815;28;20541;-71
2022/05/10 06:23:27;;;;;;;20.85;12.38;;;;;;;;;;5017575;28;20121;-71
2022/05/10 06:25:52;;;;;;;21.00;11.93;;;;;;;;;;5032206;28;20475;-70
2022/05/10 06:28:19;;;;;;;18.23;11.80;;;;;;;;;;5033925;28;20033;-70
2022/05/10 06:30:45;;;;;;;17.23;11.90;;;;;;;;;;5048425;28;20021;-71
2022/05/10 06:33:12;;;;;;;10.75;8.30;;;;;;;;;;5036663;28;20109;-72
2022/05/10 06:35:38;;;;;;;10.43;8.73;;;;;;;;;;5037734;28;20088;-71
2022/05/10 06:40:47;;;;;;;7.90;7.10;;;;;;;;;;5049297;28;20031;-71
2022/05/10 06:43:13;;;;;;;9.52;7.38;;;;;;;;;;5044931;28;20029;-71
2022/05/10 06:45:41;;;;;;;11.65;7.20;;;;;;;;;;5032256;28;20021;-71
2022/05/10 06:48:07;;;;;;;9.65;7.35;;;;;;;;;;5033215;28;20458;-70
2022/05/10 06:50:32;;;;;;;8.68;7.65;;;;;;;;;;5046281;28;20021;-70
2022/05/10 06:52:59;;;;;;;8.23;7.07;;;;;;;;;;5049229;28;20109;-72
2022/05/10 06:55:29;;;;;;;7.95;6.55;;;;;;;;;;5038075;28;20025;-71
2022/05/10 06:57:54;;;;;;;8.80;7.90;;;;;;;;;;5009322;28;20034;-72
2022/05/10 07:00:20;;;;;;;10.52;7.90;;;;;;;;;;5027855;28;20374;-73
2022/05/10 07:02:45;;;;;;;10.30;7.50;;;;;;;;;;5027434;28;20032;-72
2022/05/10 07:05:13;;;;;;;10.43;7.93;;;;;;;;;;5024880;28;20477;-72
2022/05/10 07:07:38;;;;;;;11.02;7.88;;;;;;;;;;5031608;28;20448;-71
2022/05/10 07:10:08;;;;;;;11.13;7.85;;;;;;;;;;5036961;28;20056;-72
2022/05/10 07:12:40;;;;;;;11.75;8.00;;;;;;;;;;5019767;28;20507;-71
2022/05/10 07:15:08;;;;;;;9.43;7.57;;;;;;;;;;5016805;28;20030;-72
2022/05/10 07:17:33;;;;;;;12.48;7.90;;;;;;;;;;5023522;28;20052;-72
2022/05/10 07:19:59;;;;;;;13.95;9.90;;;;;;;;;;5024200;28;20038;-72
2022/05/10 07:22:25;;;;;;;8.68;7.60;;;;;;;;;;5025776;28;20100;-72
2022/05/10 07:24:51;;;;;;;11.68;7.90;;;;;;;;;;5026930;28;20048;-72
2022/05/10 07:27:16;;;;;;;9.00;7.70;;;;;;;;;;5038355;28;20095;-71
2022/05/10 07:29:43;;;;;;;8.98;7.20;;;;;;;;;;5036454;28;20024;-72
2022/05/10 07:32:10;;;;;;;9.93;7.70;;;;;;;;;;5045792;28;20029;-72
2022/05/10 07:34:35;;;;;;;8.68;7.38;;;;;;;;;;5025924;28;20456;-72
2022/05/10 07:37:01;;;;;;;7.95;6.50;;;;;;;;;;5040399;28;20018;-73
2022/05/10 07:39:26;;;;;;;8.45;7.10;;;;;;;;;;5025626;28;20021;-72
2022/05/10 07:41:54;;;;;;;10.55;7.35;;;;;;;;;;5025468;28;20022;-71
2022/05/10 07:44:21;;;;;;;10.13;6.95;;;;;;;;;;5024583;28;20414;-72
2022/05/10 07:46:46;;;;;;;9.00;6.78;;;;;;;;;;5036500;28;20375;-71
2022/05/10 07:49:11;;;;;;;7.00;6.38;;;;;;;;;;5030121;28;20056;-71
2022/05/10 07:51:36;;;;;;;8.40;6.22;;;;;;;;;;5034401;28;20023;-72
2022/05/10 07:54:02;;;;;;;8.03;6.77;;;;;;;;;;5028951;28;20025;-71
2022/05/10 07:56:27;;;;;;;6.75;6.15;;;;;;;;;;5034737;28;20817;-73
2022/05/10 07:58:54;;;;;;;11.60;6.18;;;;;;;;;;5031498;28;20021;-73
2022/05/10 08:01:19;;;;;;;9.00;5.60;;;;;;;;;;5037174;28;20041;-73
2022/05/10 08:03:45;;;;;;;7.28;5.60;;;;;;;;;;5038124;28;20078;-72
2022/05/10 08:06:10;;;;;;;8.98;5.50;;;;;;;;;;5031725;28;20113;-73
2022/05/10 08:08:36;;;;;;;6.33;5.67;;;;;;;;;;5046475;28;20040;-73
2022/05/10 08:11:04;;;;;;;6.72;5.22;;;;;;;;;;5049279;28;20265;-72
2022/05/10 08:13:31;;;;;;;7.85;6.25;;;;;;;;;;5049024;28;20502;-71
2022/05/10 08:15:57;;;;;;;5.65;4.85;;;;;;;;;;5020567;28;20083;-71
2022/05/10 08:18:24;;;;;;;5.47;4.90;;;;;;;;;;5048910;28;20056;-71
2022/05/10 08:20:50;;;;;;;5.78;4.70;;;;;;;;;;5083578;22;20059;-73
2022/05/10 08:23:21;;;;;;;6.18;4.50;;;;;;;;;;5068741;28;20036;-71
2022/05/10 08:25:47;;;;;;;8.50;4.97;;;;;;;;;;5068193;28;20028;-73
2022/05/10 08:28:13;;;;;;;7.97;4.25;;;;;;;;;;5067741;28;20305;-72
2022/05/10 08:30:43;;;;;;;4.35;3.95;;;;;;;;;;5068010;28;20039;-72
2022/05/10 08:33:10;;;;;;;5.13;4.40;;;;;;;;;;5068972;28;20043;-73
2022/05/10 08:35:37;;;;;;;5.72;4.00;;;;;;;;;;5062076;28;20033;-72
2022/05/10 08:38:02;;;;;;;4.38;3.97;;;;;;;;;;5068254;28;20025;-72
2022/05/10 08:40:32;;;;;;;6.85;4.18;;;;;;;;;;5068586;28;20217;-73
2022/05/10 08:43:02;;;;;;;5.90;4.22;;;;;;;;;;5068163;28;20025;-73
2022/05/10 08:45:28;;;;;;;4.20;3.80;;;;;;;;;;5061749;28;20140;-73
2022/05/10 08:47:53;;;;;;;5.72;4.00;;;;;;;;;;5068624;28;20374;-73
2022/05/10 08:50:20;;;;;;;6.45;4.22;;;;;;;;;;5068506;28;20089;-72
2022/05/10 08:52:47;;;;;;;6.47;4.03;;;;;;;;;;5067654;28;20029;-73
2022/05/10 08:55:19;;;;;;;6.38;4.15;;;;;;;;;;5059876;28;20367;-72
2022/05/10 08:57:51;;;;;;;5.78;3.97;;;;;;;;;;5068625;28;20407;-73
2022/05/10 09:00:19;;;;;;;6.45;4.22;;;;;;;;;;5062820;28;20025;-72
2022/05/10 09:02:55;;;;;;;5.40;4.10;;;;;;;;;;5061322;28;20037;-72
2022/05/10 09:05:42;;;;;;;7.50;4.38;;;;;;;;;;5066890;28;20032;-74
2022/05/10 09:08:26;;;;;;;6.60;4.00;;;;;;;;;;5067451;28;20401;-72
2022/05/10 09:10:56;;;;;;;9.82;3.90;;;;;;;;;;5063297;28;20020;-72
2022/05/10 09:13:23;;;;;;;8.35;4.22;;;;;;;;;;5064577;28;20025;-72
2022/05/10 09:15:59;;;;;;;8.40;4.68;;;;;;;;;;5065061;28;20044;-73
2022/05/10 09:18:28;;;;;;;9.13;4.32;;;;;;;;;;5067339;28;20024;-73
2022/05/10 09:21:09;;;;;;;4.22;3.83;;;;;;;;;;5067942;28;20028;-72
2022/05/10 09:23:46;;;;;;;6.63;3.72;;;;;;;;;;5065174;28;20494;-73
2022/05/10 09:26:13;;;;;;;7.90;3.78;;;;;;;;;;5068099;28;20492;-74
2022/05/10 09:28:49;;;;;;;5.72;3.78;;;;;;;;;;5059514;28;20522;-72
2022/05/10 09:36:53;;;;;;;6.05;3.88;;;;;;;;;;5067403;28;20120;-72
2022/05/10 09:39:34;;;;;;;8.50;3.80;;;;;;;;;;5067360;28;20111;-73
2022/05/10 09:41:59;;;;;;;4.57;3.80;;;;;;;;;;5069044;28;20020;-72
2022/05/10 09:44:28;;;;;;;4.80;3.70;;;;;;;;;;5066973;28;20059;-72
2022/05/10 09:47:16;;;;;;;5.47;3.85;;;;;;;;;;5070252;28;20070;-73
2022/05/10 09:49:41;;;;;;;5.88;3.72;;;;;;;;;;5069071;28;20037;-72
2022/05/10 09:52:17;;;;;;;5.72;3.88;;;;;;;;;;5070470;28;20025;-72
2022/05/10 09:54:43;;;;;;;4.40;3.60;;;;;;;;;;5069967;28;20060;-72
2022/05/10 09:57:23;;;;;;;4.45;3.67;;;;;;;;;;5057063;28;20029;-72
2022/05/10 09:59:49;;;;;;;7.03;4.20;;;;;;;;;;5069907;28;20115;-72
2022/05/10 10:02:36;;;;;;;5.07;3.53;;;;;;;;;;5067165;28;20115;-71
2022/05/10 10:05:25;;;;;;;4.28;3.30;;;;;;;;;;5056671;28;20478;-71
2022/05/10 10:07:53;;;;;;;5.72;3.83;;;;;;;;;;5070041;28;20218;-72
2022/05/10 10:10:23;;;;;;;6.82;3.47;;;;;;;;;;5069065;28;20032;-71
2022/05/10 10:12:49;;;;;;;4.37;3.63;;;;;;;;;;5067691;28;20036;-72
2022/05/10 10:15:35;;;;;;;3.63;3.33;;;;;;;;;;5069991;28;20154;-73
2022/05/10 10:18:08;;;;;;;6.05;3.55;;;;;;;;;;5069798;28;20427;-71
2022/05/10 10:20:48;;;;;;;4.72;3.40;;;;;;;;;;5069317;28;20031;-73
2022/05/10 10:23:36;;;;;;;3.60;3.30;;;;;;;;;;5068811;28;20538;-70
2022/05/10 10:26:21;;;;;;;5.55;3.40;;;;;;;;;;5062445;28;20477;-72
2022/05/10 10:28:53;;;;;;;4.03;3.25;;;;;;;;;;5069472;28;20104;-73
2022/05/10 10:31:29;;;;;;;6.95;3.25;;;;;;;;;;5069846;28;20078;-71
2022/05/10 10:34:09;;;;;;;5.05;3.50;;;;;;;;;;5068543;28;20032;-74
2022/05/10 10:36:59;;;;;;;3.67;2.87;;;;;;;;;;5064115;28;20040;-71
2022/05/10 10:39:35;;;;;;;3.58;2.95;;;;;;;;;;5065022;28;20028;-72
2022/05/10 10:42:10;;;;;;;5.20;3.58;;;;;;;;;;5049415;28;20031;-71
2022/05/10 10:44:39;;;;;;;4.32;3.13;;;;;;;;;;5058045;28;20060;-72
2022/05/10 10:47:24;;;;;;;4.30;3.13;;;;;;;;;;5069574;28;20379;-73
2022/05/10 10:50:11;;;;;;;3.25;2.90;;;;;;;;;;5069409;28;20388;-73
2022/05/10 10:52:36;;;;;;;4.55;2.30;;;;;;;;;;5069125;28;20020;-75
2022/05/10 10:55:04;;;;;;;2.58;2.28;;;;;;;;;;5061973;28;20059;-72
2022/05/10 10:57:59;;;;;;;3.83;2.67;;;;;;;;;;5069516;28;20520;-75
2022/05/10 11:00:37;;;;;;;4.25;2.78;;;;;;;;;;5069201;28;20036;-72
2022/05/10 11:03:13;;;;;;;3.22;2.90;;;;;;;;;;5065894;28;20410;-74
2022/05/10 11:05:59;;;;;;;4.10;2.92;;;;;;;;;;5063652;28;20040;-74
2022/05/10 11:08:43;;;;;;;5.97;2.90;;;;;;;;;;5069307;28;20028;-72
2022/05/10 11:11:26;;;;;;;3.00;2.70;;;;;;;;;;5068976;28;20078;-75
2022/05/10 11:14:03;;;;;;;2.53;2.33;;;;;;;;;;5062352;28;20436;-74
2022/05/10 11:16:43;;;;;;;2.72;2.50;;;;;;;;;;5065961;28;20029;-71
2022/05/10 11:19:37;;;;;;;3.20;2.50;;;;;;;;;;5064796;28;20039;-74
2022/05/10 11:22:21;;;;;;;2.80;2.60;;;;;;;;;;5049050;28;20267;-70
2022/05/10 11:25:25;;;;;;;3.80;2.42;;;;;;;;;;5066360;28;20033;-71
2022/05/10 11:28:07;;;;;;;9.88;2.65;;;;;;;;;;5062411;28;20032;-72
2022/05/10 11:30:51;;;;;;;3.40;2.67;;;;;;;;;;5063056;28;20458;-72
2022/05/10 11:33:29;;;;;;;3.25;2.67;;;;;;;;;;5068963;28;20029;-70
2022/05/10 11:36:00;;;;;;;2.60;2.30;;;;;;;;;;5065080;28;20063;-71
2022/05/10 11:38:57;;;;;;;5.43;3.00;;;;;;;;;;5067996;28;20355;-71
2022/05/10 11:41:39;;;;;;;2.70;2.42;;;;;;;;;;5068016;28;20419;-74
2022/05/10 11:44:32;;;;;;;3.53;2.97;;;;;;;;;;5060484;28;20039;-72
2022/05/10 11:47:24;;;;;;;5.22;2.72;;;;;;;;;;5069106;28;20028;-71
2022/05/10 11:50:30;;;;;;;3.83;2.78;;;;;;;;;;5062974;28;20053;-71
2022/05/10 11:52:58;;;;;;;3.55;3.25;;;;;;;;;;5065486;28;20036;-69
2022/05/10 11:55:31;;;;;;;4.07;2.58;;;;;;;;;;5068564;28;20103;-73
2022/05/10 11:58:00;;;;;;;2.90;2.20;;;;;;;;;;5068457;28;20467;-71
2022/05/10 12:00:31;;;;;;;3.72;2.70;;;;;;;;;;5066232;28;20037;-71
2022/05/10 12:03:05;;;;;;;3.22;2.92;;;;;;;;;;5060114;28;20032;-72
2022/05/10 12:05:31;;;;;;;5.53;2.90;;;;;;;;;;5066532;28;20032;-71
2022/05/10 12:08:01;;;;;;;6.70;2.67;;;;;;;;;;5067355;28;20040;-70
2022/05/10 12:10:37;;;;;;;3.45;3.15;;;;;;;;;;5065076;28;20402;-68
2022/05/10 12:13:04;;;;;;;5.80;2.97;;;;;;;;;;5067724;28;20021;-73
2022/05/10 12:21:20;;;;;;;3.35;2.83;;;;;;;;;;5067499;28;20397;-71
2022/05/10 12:24:04;;;;;;;4.85;3.03;;;;;;;;;;5068182;28;20032;-73
2022/05/10 12:26:50;;;;;;;6.53;2.90;;;;;;;;;;5065549;28;20070;-69
2022/05/10 12:29:40;;;;;;;4.22;3.25;;;;;;;;;;5059342;28;20025;-72
2022/05/10 12:32:24;;;;;;;6.55;3.42;;;;;;;;;;5061170;28;20024;-72
2022/05/10 12:34:57;;;;;;;5.18;3.08;;;;;;;;;;5067836;28;20028;-72
2022/05/10 12:37:25;;;;;;;6.57;3.22;;;;;;;;;;5061872;28;20406;-71
2022/05/10 12:40:09;;;;;;;3.78;3.08;;;;;;;;;;5067060;28;20028;-69
2022/05/10 12:42:40;;;;;;;3.50;3.17;;;;;;;;;;5069015;28;20485;-71
2022/05/10 12:45:27;;;;;;;3.93;3.30;;;;;;;;;;5065210;28;20037;-70
2022/05/10 12:48:23;;;;;;;5.25;3.38;;;;;;;;;;5064552;28;20463;-73
2022/05/10 12:50:55;;;;;;;6.35;3.30;;;;;;;;;;5071314;28;20025;-70
2022/05/10 12:53:42;;;;;;;4.70;3.25;;;;;;;;;;5069814;28;20028;-72
2022/05/10 12:56:20;;;;;;;4.65;3.25;;;;;;;;;;5071264;28;20433;-72
2022/05/10 12:58:50;;;;;;;4.40;3.30;;;;;;;;;;5063602;28;20040;-70
2022/05/10 13:01:17;;;;;;;6.75;3.53;;;;;;;;;;5071683;28;20020;-71
2022/05/10 13:03:51;;;;;;;4.47;3.60;;;;;;;;;;5070981;28;20115;-73
2022/05/10 13:06:33;;;;;;;3.72;3.25;;;;;;;;;;5069826;28;20028;-71
2022/05/10 13:09:02;;;;;;;;;;;;;;;;;;5064296;28;20032;-73
2022/05/10 13:11:37;;;;;;;3.67;3.20;;;;;;;;;;5069260;28;19920;-73
2022/05/10 13:14:03;;;;;;;3.85;3.22;;;;;;;;;;5063581;28;20439;-69
2022/05/10 13:16:29;;;;;;;3.65;3.15;;;;;;;;;;5070960;28;20575;-69
2022/05/10 13:18:56;;;;;;;6.55;3.00;;;;;;;;;;5068513;28;20031;-70
2022/05/10 13:21:28;;;;;;;6.65;3.30;;;;;;;;;;5070872;28;20282;-72
2022/05/10 13:23:55;;;;;;;4.28;2.80;;;;;;;;;;5070019;28;20033;-68
2022/05/10 13:26:22;;;;;;;3.10;2.80;;;;;;;;;;5061730;28;20028;-72
2022/05/10 13:28:58;;;;;;;4.40;2.92;;;;;;;;;;5067264;28;20047;-70
2022/05/10 13:31:32;;;;;;;3.10;2.80;;;;;;;;;;5070981;28;20077;-69
2022/05/10 13:34:15;;;;;;;2.92;2.53;;;;;;;;;;5069861;28;20028;-72
2022/05/10 13:36:46;;;;;;;2.67;2.35;;;;;;;;;;5067930;28;20031;-72
2022/05/10 13:39:13;;;;;;;2.65;2.45;;;;;;;;;;5068485;28;20028;-70
2022/05/10 13:41:38;;;;;;;2.78;2.58;;;;;;;;;;5071253;28;20533;-72
2022/05/10 13:44:13;;;;;;;3.50;2.45;;;;;;;;;;5070837;28;20298;-73
2022/05/10 13:46:53;;;;;;;3.35;2.70;;;;;;;;;;5070775;28;20031;-74
2022/05/10 13:49:23;;;;;;;6.03;2.70;;;;;;;;;;5063499;28;20068;-74
2022/05/10 13:51:57;;;;;;;3.53;2.50;;;;;;;;;;5067721;28;20067;-70
2022/05/10 13:54:28;;;;;;;3.22;2.50;;;;;;;;;;5069380;28;20035;-73
2022/05/10 13:57:09;;;;;;;4.85;2.65;;;;;;;;;;5070214;28;20129;-70
2022/05/10 13:59:35;;;;;;;5.20;2.40;;;;;;;;;;5069207;28;20039;-73
2022/05/10 14:02:03;;;;;;;2.53;2.20;;;;;;;;;;5069441;28;20025;-73
2022/05/10 14:04:30;;;;;;;6.65;2.90;;;;;;;;;;5070491;28;20036;-72
2022/05/10 14:06:58;;;;;;;3.47;2.60;;;;;;;;;;5067293;28;20064;-69
2022/05/10 14:09:26;;;;;;;3.22;2.40;;;;;;;;;;5069366;28;20020;-68
2022/05/10 14:11:56;;;;;;;5.40;2.65;;;;;;;;;;5061701;28;20033;-69
2022/05/10 14:14:29;;;;;;;3.00;2.67;;;;;;;;;;5069468;28;20032;-74
2022/05/10 14:16:57;;;;;;;4.05;2.60;;;;;;;;;;5069658;28;20052;-71
2022/05/10 14:19:34;;;;;;;3.97;2.70;;;;;;;;;;5064870;28;20082;-71
2022/05/10 14:22:04;;;;;;;6.45;3.22;;;;;;;;;;5067413;28;20074;-74
2022/05/10 14:24:34;;;;;;;5.80;3.17;;;;;;;;;;5063357;28;20091;-71
2022/05/10 14:27:12;;;;;;;5.55;3.20;;;;;;;;;;5069257;28;20024;-71
2022/05/10 14:29:43;;;;;;;4.43;2.80;;;;;;;;;;5069056;28;20025;-73
2022/05/10 14:32:11;;;;;;;4.38;2.50;;;;;;;;;;5069301;28;20021;-70
2022/05/10 14:34:49;;;;;;;3.55;2.85;;;;;;;;;;5065713;28;20031;-74
2022/05/10 14:37:31;;;;;;;9.15;3.00;;;;;;;;;;5051468;28;20043;-73
2022/05/10 14:40:12;;;;;;;4.28;2.72;;;;;;;;;;5063256;28;20025;-70
2022/05/10 14:42:40;;;;;;;4.05;2.50;;;;;;;;;;5063632;28;20486;-74
2022/05/10 14:45:39;;;;;;;4.95;2.70;;;;;;;;;;5063097;28;20078;-71
2022/05/10 14:48:24;;;;;;;3.35;2.40;;;;;;;;;;5069267;28;20028;-72
2022/05/10 14:50:54;;;;;;;4.32;2.65;;;;;;;;;;5064311;28;20032;-72
2022/05/10 14:53:26;;;;;;;4.57;2.50;;;;;;;;;;5068767;28;20024;-72
2022/05/10 14:56:00;;;;;;;;;;;;;;;;;;5068189;28;20063;-71
2022/05/10 14:58:34;;;;;;;3.13;2.50;;;;;;;;;;5068594;28;19919;-72
2022/05/10 15:01:07;;;;;;;4.25;3.08;;;;;;;;;;5058986;28;20255;-72
2022/05/10 15:03:35;;;;;;;3.00;2.47;;;;;;;;;;5066954;28;20032;-71
2022/05/10 15:06:01;;;;;;;4.45;2.60;;;;;;;;;;5053890;28;20039;-70
2022/05/10 15:08:26;;;;;;;6.68;2.75;;;;;;;;;;5065690;28;20032;-70
2022/05/10 15:10:55;;;;;;;4.22;2.58;;;;;;;;;;5066423;28;20069;-71
2022/05/10 15:13:22;;;;;;;5.18;2.45;;;;;;;;;;5065387;28;20033;-72
2022/05/10 15:15:59;;;;;;;3.40;2.47;;;;;;;;;;5068612;28;20056;-72
2022/05/10 15:21:34;;;;;;;4.57;2.67;;;;;;;;;;5064106;28;20059;-73
2022/05/10 15:24:01;;;;;;;2.50;2.30;;;;;;;;;;5068983;28;20064;-73
2022/05/10 15:26:36;;;;;;;3.78;2.20;;;;;;;;;;5068909;28;20111;-72
2022/05/10 15:29:02;;;;;;;4.63;2.58;;;;;;;;;;5063400;28;20116;-74
2022/05/10 15:31:27;;;;;;;2.58;2.30;;;;;;;;;;5063127;28;20123;-73